createdAt,value
2017-09-19T05:53:19.370Z,10
2017-09-19T05:53:59.935Z,10
2017-09-19T05:54:40.429Z,10
2017-09-19T05:55:20.955Z,10
2017-09-19T05:56:01.495Z,10
2017-09-19T05:56:42.001Z,10
2017-09-19T05:57:22.542Z,10
2017-09-19T05:58:03.073Z,10
2017-09-19T05:58:43.608Z,10
2017-09-19T05:59:24.146Z,10
2017-09-19T06:00:04.667Z,10
2017-09-19T06:00:45.196Z,10
2017-09-19T06:01:25.733Z,10
2017-09-19T06:02:06.261Z,10
2017-09-19T06:02:46.798Z,10
2017-09-19T06:03:27.332Z,10
2017-09-19T06:04:07.857Z,10
2017-09-19T06:04:48.391Z,10
2017-09-19T06:05:28.927Z,10
2017-09-19T06:06:09.464Z,10
2017-09-19T06:06:49.997Z,10
2017-09-19T06:07:30.522Z,10
2017-09-19T06:08:11.063Z,10
2017-09-19T06:08:51.596Z,10
2017-09-19T06:09:32.122Z,10
2017-09-19T06:10:12.660Z,10
2017-09-19T06:10:53.202Z,10
2017-09-19T06:11:33.736Z,10
2017-09-19T06:12:14.274Z,10
2017-09-19T06:12:54.801Z,10
2017-09-19T06:13:35.346Z,15
2017-09-19T06:14:15.867Z,15
2017-09-19T06:14:56.406Z,15
2017-09-19T06:15:36.945Z,15
2017-09-19T06:16:17.479Z,15
2017-09-19T06:16:58.014Z,15
2017-09-19T06:17:38.536Z,15
2017-09-19T06:18:19.060Z,15
2017-09-19T06:18:59.596Z,20
2017-09-19T06:19:40.114Z,20
2017-09-19T06:20:20.644Z,20
2017-09-19T06:21:01.183Z,20
2017-09-19T06:21:41.701Z,25
2017-09-19T06:22:22.232Z,25
2017-09-19T06:23:02.759Z,25
2017-09-19T06:23:43.275Z,30
2017-09-19T06:24:23.782Z,30
2017-09-19T06:25:04.325Z,30
2017-09-19T06:25:44.850Z,35
2017-09-19T06:26:25.378Z,35
2017-09-19T06:27:05.927Z,35
2017-09-19T06:27:46.443Z,40
2017-09-19T06:28:26.981Z,40
2017-09-19T06:29:07.501Z,40
2017-09-19T06:29:48.025Z,40
2017-09-19T06:30:28.552Z,40
2017-09-19T06:31:09.072Z,40
2017-09-19T06:31:49.595Z,40
2017-09-19T06:32:30.118Z,35
2017-09-19T06:33:10.658Z,35
2017-09-19T06:33:51.180Z,35
2017-09-19T06:34:31.682Z,30
2017-09-19T06:35:12.203Z,30
2017-09-19T06:35:52.756Z,30
2017-09-19T06:36:33.288Z,30
2017-09-19T06:37:13.816Z,30
2017-09-19T06:37:54.328Z,30
2017-09-19T06:38:34.867Z,30
2017-09-19T06:39:15.461Z,30
2017-09-19T06:39:55.977Z,30
2017-09-19T06:40:36.497Z,30
2017-09-19T06:41:17.002Z,30
2017-09-19T06:41:57.528Z,30
2017-09-19T06:42:38.062Z,35
2017-09-19T06:43:18.600Z,35
2017-09-19T06:43:59.118Z,35
2017-09-19T06:44:39.631Z,30
2017-09-19T06:45:20.150Z,30
2017-09-19T06:46:00.672Z,30
2017-09-19T06:46:41.198Z,25
2017-09-19T06:47:21.731Z,25
2017-09-19T06:48:02.255Z,25
2017-09-19T06:48:42.771Z,25
2017-09-19T06:49:23.309Z,25
2017-09-19T06:50:03.841Z,30
2017-09-19T06:50:44.380Z,30
2017-09-19T06:51:24.914Z,30
2017-09-19T06:52:05.458Z,30
2017-09-19T06:52:45.983Z,30
2017-09-19T06:53:26.520Z,30
2017-09-19T06:54:07.054Z,30
2017-09-19T06:54:47.582Z,30
2017-09-19T06:55:28.120Z,25
2017-09-19T06:56:08.661Z,25
2017-09-19T06:56:49.192Z,25
2017-09-19T06:57:29.720Z,25
2017-09-19T06:58:10.239Z,25
2017-09-19T06:58:50.793Z,25
2017-09-19T06:59:31.339Z,25
2017-09-19T07:00:11.858Z,25
2017-09-19T07:00:52.392Z,25
2017-09-19T07:01:32.919Z,25
2017-09-19T07:02:13.463Z,25
2017-09-19T07:02:53.990Z,25
2017-09-19T07:03:34.518Z,25
2017-09-19T07:04:15.033Z,25
2017-09-19T07:04:55.569Z,25
2017-09-19T07:05:36.109Z,25
2017-09-19T07:06:16.637Z,25
2017-09-19T07:06:57.178Z,25
2017-09-19T07:07:37.707Z,25
2017-09-19T07:08:18.227Z,25
2017-09-19T07:08:58.765Z,25
2017-09-19T07:09:39.290Z,30
2017-09-19T07:10:19.821Z,35
2017-09-19T07:11:00.338Z,35
2017-09-19T07:11:40.865Z,40
2017-09-19T07:12:21.393Z,40
2017-09-19T07:13:01.932Z,40
2017-09-19T07:13:42.448Z,40
2017-09-19T07:14:22.971Z,45
2017-09-19T07:15:03.517Z,50
2017-09-19T07:15:44.048Z,50
2017-09-19T07:16:24.590Z,45
2017-09-19T07:17:05.130Z,45
2017-09-19T07:17:45.660Z,50
2017-09-19T07:18:26.191Z,50
2017-09-19T07:19:06.720Z,55
2017-09-19T07:19:47.244Z,60
2017-09-19T07:20:27.771Z,60
2017-09-19T07:21:08.304Z,70
2017-09-19T07:21:48.836Z,65
2017-09-19T07:22:29.351Z,60
2017-09-19T07:23:09.892Z,60
2017-09-19T07:23:50.415Z,70
2017-09-19T07:24:30.956Z,70
2017-09-19T07:25:11.476Z,70
2017-09-19T07:25:52.001Z,65
2017-09-19T07:26:32.544Z,55
2017-09-19T07:27:13.078Z,55
2017-09-19T07:27:53.593Z,55
2017-09-19T07:28:34.124Z,55
2017-09-19T07:29:14.665Z,55
2017-09-19T07:29:55.199Z,50
2017-09-19T07:30:35.719Z,50
2017-09-19T07:31:16.234Z,50
2017-09-19T07:31:56.771Z,55
2017-09-19T07:32:37.314Z,60
2017-09-19T07:33:17.853Z,60
2017-09-19T07:33:58.382Z,55
2017-09-19T07:34:38.914Z,60
2017-09-19T07:35:19.442Z,60
2017-09-19T07:35:59.973Z,60
2017-09-19T07:36:40.506Z,60
2017-09-19T07:37:21.036Z,60
2017-09-19T07:38:01.569Z,60
2017-09-19T07:38:42.118Z,65
2017-09-19T07:39:22.655Z,65
2017-09-19T07:40:03.182Z,65
2017-09-19T07:40:43.722Z,60
2017-09-19T07:41:24.259Z,55
2017-09-19T07:42:04.790Z,60
2017-09-19T07:42:45.316Z,65
2017-09-19T07:43:25.845Z,70
2017-09-19T07:44:06.366Z,70
2017-09-19T07:44:46.902Z,70
2017-09-19T07:45:27.450Z,70
2017-09-19T07:46:07.982Z,70
2017-09-19T07:46:48.501Z,65
2017-09-19T07:47:29.034Z,65
2017-09-19T07:48:09.575Z,55
2017-09-19T07:48:50.092Z,55
2017-09-19T07:49:30.644Z,55
2017-09-19T07:50:11.171Z,55
2017-09-19T07:50:51.748Z,55
2017-09-19T07:51:32.282Z,55
2017-09-19T07:52:12.799Z,55
2017-09-19T07:52:53.316Z,60
2017-09-19T07:53:33.849Z,60
2017-09-19T07:54:14.374Z,55
2017-09-19T07:54:54.894Z,60
2017-09-19T07:55:35.431Z,65
2017-09-19T07:56:15.971Z,70
2017-09-19T07:56:56.482Z,70
2017-09-19T07:57:36.998Z,65
2017-09-19T07:58:17.525Z,65
2017-09-19T07:58:58.054Z,60
2017-09-19T07:59:38.602Z,70
2017-09-19T08:00:19.117Z,70
2017-09-19T08:00:59.662Z,75
2017-09-19T08:01:40.182Z,70
2017-09-19T08:02:20.719Z,75
2017-09-19T08:03:01.250Z,75
2017-09-19T08:03:41.783Z,80
2017-09-19T08:04:22.308Z,85
2017-09-19T08:05:02.837Z,90
2017-09-19T08:05:43.358Z,100
2017-09-19T08:06:23.889Z,100
2017-09-19T08:07:04.420Z,110
2017-09-19T08:07:44.952Z,120
2017-09-19T08:08:25.490Z,130
2017-09-19T08:09:06.026Z,135
2017-09-19T08:09:46.556Z,150
2017-09-19T08:10:27.099Z,155
2017-09-19T08:11:07.623Z,155
2017-09-19T08:11:48.144Z,155
2017-09-19T08:12:28.695Z,165
2017-09-19T08:13:09.228Z,180
2017-09-19T08:13:49.748Z,195
2017-09-19T08:14:30.271Z,190
2017-09-19T08:15:10.801Z,170
2017-09-19T08:15:51.321Z,175
2017-09-19T08:16:31.851Z,185
2017-09-19T08:17:12.380Z,195
2017-09-19T08:17:52.897Z,185
2017-09-19T08:18:33.432Z,160
2017-09-19T08:19:13.978Z,145
2017-09-19T08:19:54.548Z,125
2017-09-19T08:20:35.081Z,125
2017-09-19T08:21:15.617Z,125
2017-09-19T08:21:56.143Z,140
2017-09-19T08:22:36.669Z,155
2017-09-19T08:23:17.187Z,175
2017-09-19T08:23:57.715Z,190
2017-09-19T08:24:38.252Z,195
2017-09-19T08:25:18.779Z,190
2017-09-19T08:25:59.303Z,200
2017-09-19T08:26:39.826Z,215
2017-09-19T08:27:20.367Z,230
2017-09-19T08:28:00.890Z,250
2017-09-19T08:28:41.416Z,280
2017-09-19T08:29:21.975Z,315
2017-09-19T08:30:02.503Z,345
2017-09-19T08:30:43.025Z,350
2017-09-19T08:31:23.578Z,370
2017-09-19T08:32:04.096Z,390
2017-09-19T08:32:44.626Z,380
2017-09-19T08:33:25.156Z,365
2017-09-19T08:34:05.694Z,355
2017-09-19T08:34:46.222Z,350
2017-09-19T08:35:26.741Z,325
2017-09-19T08:36:07.265Z,300
2017-09-19T08:36:47.780Z,270
2017-09-19T08:37:28.324Z,245
2017-09-19T08:38:08.851Z,240
2017-09-19T08:38:49.383Z,255
2017-09-19T08:39:29.911Z,255
2017-09-19T08:40:10.430Z,240
2017-09-19T08:40:50.973Z,220
2017-09-19T08:41:31.513Z,205
2017-09-19T08:42:12.029Z,175
2017-09-19T08:42:52.562Z,165
2017-09-19T08:43:33.097Z,175
2017-09-19T08:44:13.656Z,170
2017-09-19T08:44:54.178Z,180
2017-09-19T08:45:34.734Z,165
2017-09-19T08:46:15.234Z,140
2017-09-19T08:46:55.763Z,110
2017-09-19T08:47:36.300Z,105
2017-09-19T08:48:16.835Z,95
2017-09-19T08:48:57.368Z,90
2017-09-19T08:49:37.908Z,110
2017-09-19T08:50:18.449Z,125
2017-09-19T08:50:58.987Z,140
2017-09-19T08:51:39.530Z,145
2017-09-19T08:52:20.055Z,145
2017-09-19T08:53:00.599Z,150
2017-09-19T08:53:41.133Z,155
2017-09-19T08:54:21.654Z,165
2017-09-19T08:55:02.191Z,170
2017-09-19T08:55:42.723Z,185
2017-09-19T08:56:23.258Z,205
2017-09-19T08:57:03.778Z,220
2017-09-19T08:57:44.325Z,255
2017-09-19T08:58:24.849Z,265
2017-09-19T08:59:05.377Z,300
2017-09-19T08:59:45.921Z,435
2017-09-19T09:00:26.460Z,455
2017-09-19T09:01:06.993Z,730
2017-09-19T09:01:47.538Z,515
2017-09-19T09:02:28.069Z,1255
2017-09-19T09:03:08.599Z,3355
2017-09-19T09:03:49.136Z,3175
2017-09-19T09:04:29.669Z,3230
2017-09-19T09:05:10.209Z,3390
2017-09-19T09:05:50.742Z,3470
2017-09-19T09:06:31.279Z,3315
2017-09-19T09:07:11.815Z,1875
2017-09-19T09:07:52.350Z,740
2017-09-19T09:08:32.880Z,560
2017-09-19T09:09:13.414Z,460
2017-09-19T09:09:53.953Z,355
2017-09-19T09:10:34.507Z,310
2017-09-19T09:11:15.040Z,295
2017-09-19T09:11:55.568Z,290
2017-09-19T09:12:36.108Z,310
2017-09-19T09:13:16.646Z,270
2017-09-19T09:13:57.171Z,225
2017-09-19T09:14:37.714Z,190
2017-09-19T09:15:18.233Z,170
2017-09-19T09:15:58.763Z,185
2017-09-19T09:16:39.308Z,205
2017-09-19T09:17:19.849Z,195
2017-09-19T09:18:00.390Z,180
2017-09-19T09:18:40.951Z,155
2017-09-19T09:19:21.485Z,130
2017-09-19T09:20:02.020Z,120
2017-09-19T09:20:42.556Z,120
2017-09-19T09:21:23.083Z,135
2017-09-19T09:22:03.633Z,140
2017-09-19T09:22:44.161Z,145
2017-09-19T09:23:24.694Z,135
2017-09-19T09:24:05.219Z,130
2017-09-19T09:24:45.759Z,135
2017-09-19T09:25:26.293Z,155
2017-09-19T09:26:06.817Z,155
2017-09-19T09:26:47.349Z,165
2017-09-19T09:27:27.875Z,170
2017-09-19T09:28:08.399Z,150
2017-09-19T09:28:48.938Z,130
2017-09-19T09:29:29.469Z,120
2017-09-19T09:30:10.009Z,120
2017-09-19T09:30:50.533Z,115
2017-09-19T09:31:31.075Z,110
2017-09-19T09:32:11.605Z,110
2017-09-19T09:32:52.117Z,110
2017-09-19T09:33:32.677Z,115
2017-09-19T09:34:13.208Z,115
2017-09-19T09:34:53.744Z,110
2017-09-19T09:35:34.286Z,110
2017-09-19T09:36:14.826Z,105
2017-09-19T09:36:55.368Z,105
2017-09-19T09:37:35.898Z,110
2017-09-19T09:38:16.435Z,115
2017-09-19T09:38:56.974Z,110
2017-09-19T09:39:37.510Z,105
2017-09-19T09:40:18.051Z,110
2017-09-19T09:40:58.598Z,115
2017-09-19T09:41:39.131Z,110
2017-09-19T09:42:19.674Z,100
2017-09-19T09:43:00.228Z,100
2017-09-19T09:43:40.772Z,105
2017-09-19T09:44:21.309Z,110
2017-09-19T09:45:01.846Z,125
2017-09-19T09:45:42.374Z,130
2017-09-19T09:46:22.905Z,150
2017-09-19T09:47:03.441Z,170
2017-09-19T09:47:43.980Z,175
2017-09-19T09:48:24.516Z,170
2017-09-19T09:49:05.034Z,160
2017-09-19T09:49:45.571Z,155
2017-09-19T09:50:26.097Z,170
2017-09-19T09:51:06.609Z,175
2017-09-19T09:51:47.149Z,175
2017-09-19T09:52:27.676Z,170
2017-09-19T09:53:08.214Z,190
2017-09-19T09:53:48.765Z,205
2017-09-19T09:54:29.303Z,220
2017-09-19T09:55:09.834Z,215
2017-09-19T09:55:50.361Z,230
2017-09-19T09:56:30.887Z,225
2017-09-19T09:57:11.414Z,235
2017-09-19T09:57:51.944Z,255
2017-09-19T09:58:32.477Z,310
2017-09-19T09:59:13.014Z,365
2017-09-19T09:59:53.549Z,485
2017-09-19T10:00:34.091Z,515
2017-09-19T10:01:14.616Z,490
2017-09-19T10:01:55.177Z,680
2017-09-19T10:02:35.709Z,860
2017-09-19T10:03:16.255Z,1140
2017-09-19T10:03:56.793Z,2275
2017-09-19T10:04:37.329Z,1220
2017-09-19T10:05:17.857Z,975
2017-09-19T10:05:58.399Z,2220
2017-09-19T10:06:38.937Z,2000
2017-09-19T10:07:19.470Z,1135
2017-09-19T10:08:00.016Z,1985
2017-09-19T10:08:40.549Z,1485
2017-09-19T10:09:21.093Z,775
2017-09-19T10:10:01.629Z,620
2017-09-19T10:10:42.162Z,500
2017-09-19T10:11:22.703Z,475
2017-09-19T10:12:03.238Z,670
2017-09-19T10:12:43.782Z,1285
2017-09-19T10:13:24.319Z,1660
2017-09-19T10:14:04.860Z,2345
2017-09-19T10:14:45.391Z,2530
2017-09-19T10:15:25.932Z,1940
2017-09-19T10:16:06.471Z,975
2017-09-19T10:16:46.996Z,885
2017-09-19T10:17:27.527Z,820
2017-09-19T10:18:08.065Z,930
2017-09-19T10:18:48.600Z,1430
2017-09-19T10:19:29.154Z,1010
2017-09-19T10:20:09.690Z,1080
2017-09-19T10:20:50.227Z,1125
2017-09-19T10:21:30.766Z,1110
2017-09-19T10:22:11.295Z,825
2017-09-19T10:22:51.846Z,720
2017-09-19T10:23:32.395Z,400
2017-09-19T10:24:12.930Z,295
2017-09-19T10:24:53.455Z,250
2017-09-19T10:25:33.980Z,230
2017-09-19T10:26:14.505Z,230
2017-09-19T10:26:55.037Z,215
2017-09-19T10:27:35.576Z,235
2017-09-19T10:28:16.114Z,260
2017-09-19T10:28:56.651Z,270
2017-09-19T10:29:37.181Z,280
2017-09-19T10:30:17.720Z,285
2017-09-19T10:30:58.260Z,335
2017-09-19T10:31:38.791Z,385
2017-09-19T10:32:19.334Z,285
2017-09-19T10:32:59.877Z,205
2017-09-19T10:33:40.415Z,190
2017-09-19T10:34:20.957Z,190
2017-09-19T10:35:01.495Z,205
2017-09-19T10:35:42.026Z,215
2017-09-19T10:36:22.564Z,225
2017-09-19T10:37:03.091Z,220
2017-09-19T10:37:43.648Z,220
2017-09-19T10:38:24.190Z,230
2017-09-19T10:39:04.732Z,220
2017-09-19T10:39:45.270Z,195
2017-09-19T10:40:25.800Z,175
2017-09-19T10:41:06.332Z,165
2017-09-19T10:41:46.876Z,165
2017-09-19T10:42:27.405Z,160
2017-09-19T10:43:07.944Z,160
2017-09-19T10:43:48.475Z,165
2017-09-19T10:44:29.007Z,175
2017-09-19T10:45:09.542Z,180
2017-09-19T10:45:50.083Z,195
2017-09-19T10:46:30.620Z,215
2017-09-19T10:47:11.157Z,225
2017-09-19T10:47:51.696Z,245
2017-09-19T10:48:32.238Z,270
2017-09-19T10:49:12.777Z,285
2017-09-19T10:49:53.284Z,295
2017-09-19T10:50:33.812Z,310
2017-09-19T10:51:14.372Z,310
2017-09-19T10:51:54.898Z,315
2017-09-19T10:52:35.450Z,310
2017-09-19T10:53:15.984Z,290
2017-09-19T10:53:56.524Z,290
2017-09-19T10:54:37.061Z,300
2017-09-19T10:55:17.599Z,315
2017-09-19T10:55:58.135Z,325
2017-09-19T10:56:38.674Z,325
2017-09-19T10:57:19.203Z,315
2017-09-19T10:57:59.744Z,320
2017-09-19T10:58:40.278Z,340
2017-09-19T10:59:20.814Z,375
2017-09-19T11:00:01.338Z,395
2017-09-19T11:00:41.886Z,415
2017-09-19T11:01:22.414Z,420
2017-09-19T11:02:02.959Z,380
2017-09-19T11:02:43.494Z,375
2017-09-19T11:03:24.041Z,390
2017-09-19T11:04:04.591Z,455
2017-09-19T11:04:45.106Z,435
2017-09-19T11:05:25.640Z,410
2017-09-19T11:06:06.175Z,550
2017-09-19T11:06:46.715Z,285
2017-09-19T11:07:27.241Z,260
2017-09-19T11:08:07.781Z,225
2017-09-19T11:08:48.298Z,205
2017-09-19T11:09:28.840Z,170
2017-09-19T11:10:09.376Z,160
2017-09-19T11:10:49.913Z,190
2017-09-19T11:11:30.457Z,345
2017-09-19T11:12:11.015Z,445
2017-09-19T11:12:51.528Z,565
2017-09-19T11:13:32.061Z,765
2017-09-19T11:14:12.596Z,620
2017-09-19T11:14:53.128Z,535
2017-09-19T11:15:33.681Z,490
2017-09-19T11:16:14.216Z,445
2017-09-19T11:16:54.749Z,375
2017-09-19T11:17:35.317Z,390
2017-09-19T11:18:15.850Z,575
2017-09-19T11:18:56.387Z,460
2017-09-19T11:19:36.930Z,485
2017-09-19T11:20:17.473Z,465
2017-09-19T11:20:57.989Z,635
2017-09-19T11:21:38.538Z,485
2017-09-19T11:22:19.078Z,350
2017-09-19T11:22:59.610Z,335
2017-09-19T11:23:40.147Z,350
2017-09-19T11:24:20.679Z,370
2017-09-19T11:25:01.207Z,350
2017-09-19T11:25:41.749Z,370
2017-09-19T11:26:22.282Z,380
2017-09-19T11:27:02.826Z,410
2017-09-19T11:27:43.362Z,405
2017-09-19T11:28:23.897Z,355
2017-09-19T11:29:04.439Z,310
2017-09-19T11:29:44.971Z,275
2017-09-19T11:30:25.532Z,215
2017-09-19T11:31:06.062Z,185
2017-09-19T11:31:46.617Z,150
2017-09-19T11:32:27.155Z,125
2017-09-19T11:33:07.681Z,110
2017-09-19T11:33:48.229Z,100
2017-09-19T11:34:28.775Z,105
2017-09-19T11:35:09.300Z,115
2017-09-19T11:35:49.823Z,135
2017-09-19T11:36:30.356Z,185
2017-09-19T11:37:10.898Z,300
2017-09-19T11:37:51.608Z,370
2017-09-19T11:38:32.147Z,375
2017-09-19T11:39:12.662Z,335
2017-09-19T11:39:53.217Z,295
2017-09-19T11:40:33.750Z,260
2017-09-19T11:41:14.294Z,260
2017-09-19T11:41:54.828Z,300
2017-09-19T11:42:35.450Z,325
2017-09-19T11:43:16.035Z,345
2017-09-19T11:43:56.964Z,375
2017-09-19T11:44:37.547Z,400
2017-09-19T11:45:18.424Z,405
2017-09-19T11:45:59.396Z,400
2017-09-19T11:46:40.071Z,380
2017-09-19T11:47:21.949Z,360
2017-09-19T11:48:02.915Z,375
2017-09-19T11:48:43.984Z,365
2017-09-19T11:49:24.495Z,345
2017-09-19T11:50:05.697Z,310
2017-09-19T11:50:46.860Z,240
2017-09-19T11:51:27.275Z,235
2017-09-19T11:52:08.257Z,215
2017-09-19T11:52:49.752Z,215
2017-09-19T11:53:30.358Z,210
2017-09-19T11:54:11.386Z,210
2017-09-19T11:54:51.869Z,235
2017-09-19T11:55:33.118Z,205
2017-09-19T11:56:13.341Z,190
2017-09-19T11:56:54.073Z,215
2017-09-19T11:57:35.680Z,230
2017-09-19T11:58:17.307Z,205
2017-09-19T11:58:58.227Z,185
2017-09-19T11:59:38.934Z,165
2017-09-19T12:00:19.505Z,145
2017-09-19T12:01:00.037Z,140
2017-09-19T12:01:40.566Z,175
2017-09-19T12:02:21.379Z,225
2017-09-19T12:03:01.967Z,250
2017-09-19T12:03:42.632Z,235
2017-09-19T12:04:23.219Z,230
2017-09-19T12:05:03.727Z,225
2017-09-19T12:05:44.332Z,220
2017-09-19T12:06:24.944Z,225
2017-09-19T12:07:05.943Z,225
2017-09-19T12:07:46.748Z,195
2017-09-19T12:08:27.615Z,160
2017-09-19T12:09:08.458Z,120
2017-09-19T12:09:49.350Z,100
2017-09-19T12:10:31.086Z,90
2017-09-19T12:11:13.479Z,90
2017-09-19T12:11:55.063Z,95
2017-09-19T12:12:35.870Z,100
2017-09-19T12:13:16.375Z,100
2017-09-19T12:13:57.029Z,100
2017-09-19T12:14:38.009Z,105
2017-09-19T12:15:18.438Z,115
2017-09-19T12:15:59.154Z,115
2017-09-19T12:16:39.746Z,115
2017-09-19T12:17:20.266Z,115
2017-09-19T12:18:01.424Z,115
2017-09-19T12:18:41.950Z,115
2017-09-19T12:19:23.049Z,110
2017-09-19T12:20:03.565Z,115
2017-09-19T12:20:44.082Z,110
2017-09-19T12:21:24.617Z,110
2017-09-19T12:22:05.713Z,100
2017-09-19T12:22:46.916Z,90
2017-09-19T12:23:27.497Z,105
2017-09-19T12:24:08.007Z,110
2017-09-19T12:24:48.579Z,115
2017-09-19T12:25:29.287Z,120
2017-09-19T12:26:09.851Z,125
2017-09-19T12:26:50.361Z,130
2017-09-19T12:27:30.900Z,135
2017-09-19T12:28:11.440Z,135
2017-09-19T12:28:51.979Z,145
2017-09-19T12:29:32.507Z,150
2017-09-19T12:30:13.037Z,140
2017-09-19T12:30:53.561Z,135
2017-09-19T12:31:34.097Z,140
2017-09-19T12:32:14.638Z,130
2017-09-19T12:32:55.167Z,125
2017-09-19T12:33:35.748Z,130
2017-09-19T12:34:16.260Z,140
2017-09-19T12:34:56.788Z,150
2017-09-19T12:35:37.312Z,145
2017-09-19T12:36:17.850Z,150
2017-09-19T12:36:58.384Z,165
2017-09-19T12:37:38.910Z,180
2017-09-19T12:38:19.444Z,195
2017-09-19T12:38:59.982Z,200
2017-09-19T12:39:40.517Z,200
2017-09-19T12:40:21.057Z,200
2017-09-19T12:41:01.589Z,210
2017-09-19T12:41:42.128Z,220
2017-09-19T12:42:22.660Z,225
2017-09-19T12:43:03.196Z,225
2017-09-19T12:43:43.719Z,215
2017-09-19T12:44:24.261Z,220
2017-09-19T12:45:04.814Z,215
2017-09-19T12:45:45.330Z,190
2017-09-19T12:46:25.861Z,165
2017-09-19T12:47:06.397Z,145
2017-09-19T12:47:46.926Z,150
2017-09-19T12:48:27.473Z,165
2017-09-19T12:49:08.007Z,185
2017-09-19T12:49:48.600Z,205
2017-09-19T12:50:29.137Z,215
2017-09-19T12:51:09.672Z,225
2017-09-19T12:51:50.209Z,230
2017-09-19T12:52:30.758Z,215
2017-09-19T12:53:11.285Z,190
2017-09-19T12:53:51.816Z,160
2017-09-19T12:54:32.357Z,145
2017-09-19T12:55:12.886Z,150
2017-09-19T12:55:53.484Z,185
2017-09-19T12:56:34.023Z,210
2017-09-19T12:57:14.558Z,220
2017-09-19T12:57:55.095Z,210
2017-09-19T12:58:35.624Z,205
2017-09-19T12:59:16.177Z,210
2017-09-19T12:59:56.713Z,240
2017-09-19T13:00:37.252Z,280
2017-09-19T13:01:17.788Z,295
2017-09-19T13:01:58.322Z,310
2017-09-19T13:02:38.851Z,320
2017-09-19T13:03:19.400Z,310
2017-09-19T13:03:59.932Z,310
2017-09-19T13:04:40.473Z,300
2017-09-19T13:05:20.992Z,300
2017-09-19T13:06:01.535Z,315
2017-09-19T13:06:42.074Z,325
2017-09-19T13:07:22.645Z,315
2017-09-19T13:08:03.179Z,310
2017-09-19T13:08:43.719Z,300
2017-09-19T13:09:24.255Z,305
2017-09-19T13:10:04.799Z,295
2017-09-19T13:10:45.345Z,290
2017-09-19T13:11:25.878Z,290
2017-09-19T13:12:06.430Z,295
2017-09-19T13:12:46.961Z,295
2017-09-19T13:13:27.501Z,295
2017-09-19T13:14:08.033Z,300
2017-09-19T13:14:48.569Z,285
2017-09-19T13:15:29.108Z,260
2017-09-19T13:16:09.651Z,240
2017-09-19T13:16:50.183Z,245
2017-09-19T13:17:30.734Z,240
2017-09-19T13:18:11.259Z,200
2017-09-19T13:18:51.794Z,180
2017-09-19T13:19:32.331Z,170
2017-09-19T13:20:12.867Z,190
2017-09-19T13:20:53.432Z,190
2017-09-19T13:21:34.001Z,190
2017-09-19T13:22:14.524Z,215
2017-09-19T13:22:55.071Z,230
2017-09-19T13:23:35.611Z,235
2017-09-19T13:24:16.162Z,265
2017-09-19T13:24:56.692Z,290
2017-09-19T13:25:37.235Z,315
2017-09-19T13:26:17.769Z,355
2017-09-19T13:26:58.295Z,370
2017-09-19T13:27:38.802Z,390
2017-09-19T13:28:19.319Z,430
2017-09-19T13:28:59.847Z,410
2017-09-19T13:29:40.375Z,400
2017-09-19T13:30:20.907Z,385
2017-09-19T13:31:01.415Z,355
2017-09-19T13:31:41.941Z,325
2017-09-19T13:32:22.469Z,300
2017-09-19T13:33:02.997Z,285
2017-09-19T13:33:43.548Z,285
2017-09-19T13:34:24.072Z,265
2017-09-19T13:35:04.584Z,260
2017-09-19T13:35:45.146Z,255
2017-09-19T13:36:25.644Z,265
2017-09-19T13:37:06.179Z,255
2017-09-19T13:37:46.724Z,270
2017-09-19T13:38:27.240Z,375
2017-09-19T13:39:07.785Z,255
2017-09-19T13:39:48.323Z,230
2017-09-19T13:40:28.850Z,320
2017-09-19T13:41:09.398Z,310
2017-09-19T13:41:49.917Z,230
2017-09-19T13:42:30.445Z,310
2017-09-19T13:43:11.018Z,310
2017-09-19T13:43:51.591Z,315
2017-09-19T13:44:32.102Z,315
2017-09-19T13:45:12.641Z,325
2017-09-19T13:45:53.184Z,335
2017-09-19T13:46:33.723Z,325
2017-09-19T13:47:14.273Z,310
2017-09-19T13:47:54.803Z,295
2017-09-19T13:48:35.325Z,315
2017-09-19T13:49:15.864Z,315
2017-09-19T13:49:56.402Z,305
2017-09-19T13:50:36.943Z,310
2017-09-19T13:51:17.481Z,295
2017-09-19T13:51:58.010Z,290
2017-09-19T13:52:38.545Z,290
2017-09-19T13:53:19.079Z,285
2017-09-19T13:53:59.610Z,290
2017-09-19T13:54:40.152Z,295
2017-09-19T13:55:20.686Z,305
2017-09-19T13:56:01.231Z,305
2017-09-19T13:56:41.765Z,285
2017-09-19T13:57:22.295Z,275
2017-09-19T13:58:02.818Z,270
2017-09-19T13:58:43.343Z,275
2017-09-19T13:59:23.864Z,280
2017-09-19T14:00:04.405Z,295
2017-09-19T14:00:44.930Z,295
2017-09-19T14:01:25.453Z,310
2017-09-19T14:02:05.988Z,310
2017-09-19T14:02:46.528Z,300
2017-09-19T14:03:27.065Z,300
2017-09-19T14:04:07.608Z,305
2017-09-19T14:04:48.138Z,320
2017-09-19T14:05:28.700Z,335
2017-09-19T14:06:09.202Z,315
2017-09-19T14:06:49.742Z,300
2017-09-19T14:07:30.274Z,275
2017-09-19T14:08:10.811Z,230
2017-09-19T14:08:51.340Z,195
2017-09-19T14:09:31.879Z,155
2017-09-19T14:10:12.406Z,120
2017-09-19T14:10:52.935Z,90
2017-09-19T14:11:33.466Z,65
2017-09-19T14:12:13.996Z,55
2017-09-19T14:12:54.529Z,45
2017-09-19T14:13:35.065Z,40
2017-09-19T14:14:15.596Z,40
2017-09-19T14:14:56.124Z,45
2017-09-19T14:15:36.684Z,60
2017-09-19T14:16:17.225Z,75
2017-09-19T14:16:57.758Z,90
2017-09-19T14:17:38.283Z,110
2017-09-19T14:18:18.808Z,160
2017-09-19T14:18:59.355Z,160
2017-09-19T14:19:39.846Z,140
2017-09-19T14:20:20.368Z,120
2017-09-19T14:21:10.995Z,125
2017-09-19T14:21:51.571Z,120
2017-09-19T14:22:32.109Z,130
2017-09-19T14:23:12.636Z,145
2017-09-19T14:23:53.176Z,160
2017-09-19T14:24:33.702Z,190
2017-09-19T14:25:14.219Z,215
2017-09-19T14:25:54.736Z,210
2017-09-19T14:26:35.273Z,185
2017-09-19T14:27:15.796Z,145
2017-09-19T14:27:56.331Z,155
2017-09-19T14:28:36.882Z,165
2017-09-19T14:29:17.421Z,165
2017-09-19T14:29:57.957Z,155
2017-09-19T14:30:38.488Z,160
2017-09-19T14:31:19.027Z,170
2017-09-19T14:31:59.572Z,185
2017-09-19T14:32:40.105Z,205
2017-09-19T14:33:20.633Z,200
2017-09-19T14:34:01.209Z,185
2017-09-19T14:34:41.709Z,185
2017-09-19T14:35:22.248Z,185
2017-09-19T14:36:02.772Z,185
2017-09-19T14:36:43.318Z,185
2017-09-19T14:37:23.865Z,190
2017-09-19T14:38:04.438Z,200
2017-09-19T14:38:44.972Z,210
2017-09-19T14:39:25.513Z,225
2017-09-19T14:40:06.048Z,230
2017-09-19T14:40:46.580Z,215
2017-09-19T14:41:27.111Z,195
2017-09-19T14:42:07.650Z,175
2017-09-19T14:42:48.190Z,150
2017-09-19T14:43:28.729Z,135
2017-09-19T14:44:09.272Z,130
2017-09-19T14:44:49.818Z,125
2017-09-19T14:45:30.364Z,125
2017-09-19T14:46:10.907Z,135
2017-09-19T14:46:51.447Z,140
2017-09-19T14:47:31.991Z,145
2017-09-19T14:48:12.507Z,155
2017-09-19T14:48:53.047Z,145
2017-09-19T14:49:33.582Z,135
2017-09-19T14:50:14.110Z,115
2017-09-19T14:50:54.648Z,100
2017-09-19T14:51:35.191Z,85
2017-09-19T14:52:15.723Z,70
2017-09-19T14:52:56.234Z,60
2017-09-19T14:53:36.776Z,60
2017-09-19T14:54:17.313Z,60
2017-09-19T14:54:57.856Z,60
2017-09-19T14:55:38.399Z,65
2017-09-19T14:56:18.929Z,65
2017-09-19T14:56:59.538Z,70
2017-09-19T14:57:40.084Z,75
2017-09-19T14:58:20.621Z,80
2017-09-19T14:59:01.160Z,90
2017-09-19T14:59:41.701Z,100
2017-09-19T15:00:22.226Z,110
2017-09-19T15:01:02.738Z,120
2017-09-19T15:01:43.271Z,130
2017-09-19T15:02:23.804Z,130
2017-09-19T15:03:04.341Z,135
2017-09-19T15:03:44.879Z,135
2017-09-19T15:04:25.411Z,130
2017-09-19T15:05:05.946Z,130
2017-09-19T15:05:46.491Z,130
2017-09-19T15:06:27.027Z,130
2017-09-19T15:07:07.567Z,135
2017-09-19T15:07:48.104Z,135
2017-09-19T15:08:28.637Z,140
2017-09-19T15:09:09.171Z,140
2017-09-19T15:09:49.707Z,135
2017-09-19T15:10:30.248Z,125
2017-09-19T15:11:10.796Z,120
2017-09-19T15:11:51.334Z,130
2017-09-19T15:12:31.862Z,135
2017-09-19T15:13:12.386Z,135
2017-09-19T15:13:52.928Z,140
2017-09-19T15:14:33.453Z,190
2017-09-19T15:15:14.000Z,210
2017-09-19T15:15:54.533Z,230